x

Burns Harbor, In (bhri3) Weather Station

5:40am - Wed 1st Apr 2015 All times are CDT. -5 hours from GMT.

  • Wind
    13mph, 16mph gusts
  • Air Temp 42°f
  • Sea Pressure 1016.3mb
  • Burns Harbor, In
  • Burns Harbor, In

More Historic Weather Station data

Upgrade to MSW Pro to gain access to the past 30 days of data for over 8000 Wavebouys and Weather Stations around the globe.

Join Pro

Comparision Forecast

View Surf forecast
   
Wed 04/01 5:40am 13 16 mph 1016.3mb 42f
5:30am 14 17 mph 1015.9mb 42f
5:20am 13 16 mph 1015.9mb 42f
5:10am 14 17 mph 1015.9mb 42f
5:00am 13 17 mph 1015.9mb 42f
4:40am 13 15 mph 1015.6mb 42f
4:30am 13 16 mph 1015.6mb 42f
4:20am 11 18 mph 1015.6mb 42f
4:10am 13 20 mph 1015.6mb 42f
4:00am 13 16 mph 1015.6mb 42f
3:40am 14 16 mph 1015.6mb 42f
3:30am 13 15 mph 1015.6mb 42f
3:20am 13 17 mph 1015.6mb 42f
3:10am 11 16 mph 1015.2mb 42f
3:00am 13 16 mph 1015.2mb 43f
2:40am 11 16 mph 1015.6mb 43f
2:30am 13 17 mph 1015.6mb 43f
2:20am 14 17 mph 1015.6mb 43f
2:10am 14 17 mph 1015.6mb 43f
2:00am 13 16 mph 1015.6mb 44f
1:40am 13 18 mph 1015.6mb 43f
1:30am 16 20 mph 1015.6mb 43f
1:20am 15 17 mph 1015.6mb 43f
1:10am 15 17 mph 1015.6mb 43f
1:00am 14 16 mph 1015.6mb 43f
12:40am 13 16 mph 1015.6mb 44f
12:30am 11 15 mph 1015.6mb 44f
12:20am 11 13 mph 1015.6mb 44f
12:10am 10 11 mph 1015.6mb 44f
12:00am 10 13 mph 1015.6mb 45f
Tue 03/31 11:40pm 10 14 mph 1015.9mb 45f
11:30pm 8 14 mph 1015.9mb 45f
11:20pm 8 14 mph 1015.9mb 45f
11:10pm 9 16 mph 1015.9mb 45f
11:00pm 10 15 mph 1015.6mb 45f
10:40pm 10 14 mph 1015.6mb 46f
10:30pm 9 13 mph 1015.6mb 45f
10:20pm 9 11 mph 1015.6mb 45f
10:10pm 8 13 mph 1015.6mb 46f
10:00pm 10 14 mph 1015.6mb 46f
9:40pm 11 16 mph 1015.2mb 47f
9:30pm 8 14 mph 1015.6mb 47f
9:20pm 6 10 mph 1015.6mb 47f
9:10pm 10 14 mph 1015.6mb 47f
9:00pm 10 15 mph 1015.6mb 47f
8:40pm 10 14 mph 1015.2mb 48f
8:30pm 8 10 mph 1015.2mb 48f
8:20pm 6 8 mph 1015.2mb 49f
8:10pm 6 8 mph 1015.2mb 49f
8:00pm 3 8 mph 1014.9mb 49f
7:40pm 6 9 mph 1015.2mb 49f
7:30pm 5 6 mph 1014.9mb 43f
7:20pm 5 6 mph 1014.9mb 40f
7:10pm 2 3 mph 1015.2mb 40f
7:00pm 5
mph
1015.2mb 41f
6:40pm 3 7 mph 1015.2mb 42f
5:40pm 6 8 mph 1014.9mb 40f
5:30pm 7 8 mph 1015.2mb 41f
5:20pm 7 8 mph 1015.2mb 41f
5:10pm 7 9 mph 1015.2mb 40f
5:00pm 9 10 mph 1015.2mb 39f
4:40pm 10 11 mph 1015.2mb 39f
4:30pm 9 11 mph 1015.2mb 40f
4:20pm 10 11 mph 1015.2mb 40f
4:10pm 9 10 mph 1015.6mb 40f
4:00pm 10 11 mph 1015.6mb 40f
3:40pm 10 11 mph 1015.6mb 39f
3:30pm 10 11 mph 1015.6mb 39f
3:20pm 10
mph
1015.6mb 40f
3:10pm 8 9 mph 1015.9mb 40f
3:00pm 7 8 mph 1015.6mb 40f
2:40pm 7 8 mph 1015.9mb 39f
2:30pm 7 8 mph 1015.9mb 38f
2:20pm 6 9 mph 1015.9mb 38f
2:10pm 7 8 mph 1015.9mb 38f
2:00pm 6 8 mph 1015.9mb 38f
1:40pm 7 10 mph 1015.9mb 38f
1:30pm 7 10 mph 1015.9mb 38f
1:20pm 8 10 mph 1015.6mb 38f
1:10pm 8 11 mph 1015.6mb 38f
1:00pm 8 11 mph 1015.6mb 38f
12:40pm 9 14 mph 1015.2mb 38f
12:30pm 11 14 mph 1015.2mb 38f
12:20pm 10 14 mph 1015.2mb 37f
12:10pm 11 15 mph 1014.9mb 37f
12:00pm 13 15 mph 1014.9mb 37f
11:40am 14 16 mph 1014.9mb 37f
11:30am 13 16 mph 1014.6mb 38f
11:20am 11 17 mph 1014.6mb 38f
11:10am 14 18 mph 1014.2mb 37f
11:00am 14 17 mph 1014.2mb 37f
10:40am 14 20 mph 1013.9mb 37f
10:30am 15 18 mph 1013.9mb 37f
10:20am 13 21 mph 1013.5mb 37f
10:10am 14 17 mph 1013.5mb 37f
10:00am 14 17 mph 1013.2mb 37f
9:40am 14 17 mph 1012.9mb 37f
9:30am 13 16 mph 1012.5mb 37f
9:20am 13 16 mph 1012.5mb 37f
9:10am 13 15 mph 1012.2mb 37f
9:00am 11 15 mph 1011.9mb 37f
8:40am 13 17 mph 1011.9mb 37f
8:30am 14 20 mph 1011.5mb 37f
8:20am 16 21 mph 1011.2mb 37f
8:10am 16 20 mph 1010.8mb 36f
8:00am 16 23 mph 1010.8mb 36f
7:40am 16 20 mph 1010.5mb 35f
7:30am 14 18 mph 1010.5mb 36f
7:20am 16 22 mph 1010.2mb 36f
7:10am 17 23 mph 1010.2mb 35f
7:00am 17 21 mph 1009.8mb 35f
6:40am 15 20 mph 1009.5mb 35f
6:30am 14 21 mph 1009.1mb 35f
6:20am 17 22 mph 1009.1mb 35f
6:10am 16 21 mph 1008.5mb 37f
6:00am 16 22 mph 1008.1mb 37f
5:40am 16 21 mph 1007.8mb 39f
5:30am 11 17 mph 1007.8mb 40f
5:20am 9 13 mph 1007.5mb 41f
5:10am 11 17 mph 1007.5mb 42f
5:00am 15 16 mph 1006.8mb 45f
4:40am 16 18 mph 1006.4mb 47f
4:30am 16 18 mph 1006.1mb 47f
4:20am 15 20 mph 1006.4mb 46f
4:10am 15 17 mph 1006.4mb 46f
4:00am 16 18 mph 1006.4mb 47f
3:40am 15 22 mph 1006.4mb 49f
3:30am 16 23 mph 1006.4mb 50f
3:20am 20 25 mph 1005.8mb 51f
3:10am 18 31 mph 1005.8mb 52f
3:00am 21 32 mph 1005.4mb 53f
2:42am 22 30 mph 1005.4mb 53f
2:40am 22 33 mph 1005.8mb 53f
2:30am 26 38 mph 1005.8mb 53f
2:20am 28 38 mph 1005.8mb 53f
2:10am 30 39 mph 1005.8mb 54f
2:00am 36 46 mph 1006.1mb 54f
1:41am 32
mph
1006.8mb 55f
1:40am 32 40 mph 1006.4mb 55f
1:39am 29 40 mph 1006.1mb 55f
1:30am 23 34 mph 1006.8mb 55f
1:20am 24 32 mph 1006.8mb 54f
1:10am 22 28 mph 1007.1mb 53f
1:00am 22 32 mph 1007.1mb 54f
12:40am 24
mph
1007.5mb 54f
12:30am 23 31 mph 1007.8mb 54f
12:20am 22 28 mph 1008.1mb 53f
12:10am 21 25 mph 1008.5mb 52f
12:00am 20 24 mph 1008.8mb 51f
Mon 03/30 11:40pm 15 24 mph 1009.5mb 51f
11:30pm 16 24 mph 1010.2mb 51f
11:20pm 11 17 mph 1010.5mb 51f
11:10pm 11 21 mph 1010.5mb 51f
11:00pm 14 20 mph 1010.5mb 51f
10:40pm 11 23 mph 1011.2mb 49f
10:30pm 15 21 mph 1011.5mb 50f
10:20pm 13 22 mph 1011.9mb 50f
10:10pm 13 23 mph 1011.9mb 51f
10:00pm 14 20 mph 1012.2mb 51f
9:40pm 9 15 mph 1012.5mb 52f
9:30pm 9 15 mph 1012.9mb 52f
9:20pm 10 15 mph 1012.9mb 51f
9:10pm 10 14 mph 1013.2mb 51f
9:00pm 11 16 mph 1013.2mb 51f
8:40pm 9 13 mph 1013.5mb 51f
8:30pm 8 14 mph 1013.9mb 51f
8:20pm 10 22 mph 1013.9mb 49f
8:10pm 14 15 mph 1013.9mb 48f
8:00pm 13 14 mph 1014.2mb 47f
7:40pm 9 13 mph 1014.6mb 48f
7:30pm 9 11 mph 1014.9mb 49f
7:20pm 7 8 mph 1015.2mb 49f
7:10pm 8 10 mph 1015.2mb 50f
7:00pm 7 11 mph 1014.9mb 47f
6:40pm 13 14 mph 1014.6mb 48f
6:30pm 10 13 mph 1014.6mb 51f
6:20pm 8 9 mph 1014.6mb 51f
6:10pm 5
mph
1014.6mb 50f
6:00pm 2 3 mph 1014.6mb 52f
5:40pm 5
mph
1014.6mb 52f
5:30pm 2 6 mph 1014.6mb 52f
5:20pm 3 6 mph 1014.6mb 51f
5:10pm 3 8 mph 1014.9mb 50f
5:00pm 8 13 mph 1014.9mb 49f
4:40pm 9 18 mph 1014.9mb 49f
4:30pm 10 16 mph 1014.9mb 49f
4:20pm 15 17 mph 1014.9mb 52f
4:10pm 7 8 mph 1015.2mb 49f
4:00pm 5 8 mph 1015.2mb 48f
3:40pm 5 8 mph 1015.6mb 50f
3:30pm 5 7 mph 1015.6mb 49f
3:20pm 5 7 mph 1015.9mb 49f
3:10pm 5 8 mph 1015.9mb 50f
3:00pm 7 9 mph 1016.3mb 49f
2:40pm 7 9 mph 1016.3mb 52f
2:30pm 5 7 mph 1016.6mb 52f
2:20pm 3 6 mph 1016.6mb 53f
2:10pm 1 3 mph 1016.6mb 54f
2:00pm 1 2 mph 1016.9mb 56f
1:40pm  -  2 mph 1017.3mb 55f
1:30pm  -  2 mph 1017.3mb 53f
1:20pm 2 3 mph 1017.6mb 51f
1:10pm 5
mph
1017.6mb 50f
1:00pm 5 7 mph 1017.6mb 50f
12:40pm 7 9 mph 1017.9mb 46f
12:30pm 9 10 mph 1017.9mb 46f
12:20pm 9 10 mph 1017.9mb 45f
12:10pm 9 10 mph 1017.9mb 44f
12:00pm 9 11 mph 1018.3mb 44f
11:40am 10 11 mph 1018.6mb 43f
11:30am 10 13 mph 1018.6mb 44f
11:20am 11 14 mph 1018.6mb 44f
11:10am 11 14 mph 1018.6mb 43f
11:00am 10 14 mph 1018.6mb 43f
10:40am 11 14 mph 1019mb 43f
10:30am 13 14 mph 1019mb 42f
10:20am 10 13 mph 1018.6mb 42f
10:10am 11 13 mph 1019mb 42f
10:00am 11 14 mph 1018.6mb 42f
9:40am 13 14 mph 1018.6mb 41f
9:30am 11 14 mph 1018.6mb 40f
9:20am 13 14 mph 1018.6mb 40f
9:10am 13 15 mph 1018.3mb 40f
9:00am 11 14 mph 1018.3mb 40f
8:40am 13 14 mph 1018.3mb 39f
8:30am 13 14 mph 1018.3mb 39f
8:20am 10 13 mph 1017.9mb 39f
8:10am 11 14 mph 1017.9mb 39f
8:00am 11 15 mph 1017.9mb 39f
7:40am 15 17 mph 1017.6mb 39f
7:30am 14 16 mph 1017.3mb 39f
7:20am 13 14 mph 1017.6mb 38f
7:10am 13 14 mph 1017.3mb 38f
7:00am 13 15 mph 1016.9mb 38f
6:40am 13 15 mph 1016.9mb 38f
6:30am 14 15 mph 1016.9mb 38f
6:20am 11 15 mph 1016.6mb 38f
6:10am 13 14 mph 1016.6mb 38f
6:00am 13 15 mph 1016.6mb 38f
5:40am 14 16 mph 1015.9mb 39f
5:30am 14 15 mph 1015.9mb 39f
5:20am 11 14 mph 1015.9mb 39f
5:10am 11 14 mph 1015.9mb 39f
5:00am 13 14 mph 1015.9mb 39f
4:40am 11 14 mph 1015.6mb 39f
4:30am 11 13 mph 1015.6mb 39f
4:20am 11 13 mph 1015.2mb 40f
4:10am 11 14 mph 1015.2mb 40f
4:00am 13 14 mph 1015.2mb 40f
3:40am 10 11 mph 1015.2mb 39f
3:30am 10 11 mph 1015.2mb 39f
3:20am 9 11 mph 1015.2mb 39f
3:10am 10 13 mph 1015.2mb 39f
3:00am 11 14 mph 1015.2mb 40f
2:40am 10 13 mph 1015.2mb 40f
2:30am 10 13 mph 1015.2mb 40f
2:20am 11 13 mph 1015.2mb 40f
2:10am 9 11 mph 1015.2mb 40f
2:00am 10 11 mph 1014.9mb 40f
1:40am 9 10 mph 1014.9mb 39f
1:30am 8 10 mph 1014.9mb 40f
1:20am 7 9 mph 1014.9mb 40f
1:10am 8 10 mph 1014.9mb 40f
1:00am 9 10 mph 1014.9mb 40f
12:40am 9 10 mph 1014.9mb 41f
12:30am 9 11 mph 1014.6mb 41f
12:20am 9 14 mph 1014.6mb 41f
12:10am 9 13 mph 1014.6mb 41f
12:00am 10 13 mph 1014.6mb 41f
Sun 03/29 11:40pm 10 16 mph 1014.2mb 41f
11:30pm 11 15 mph 1014.2mb 41f
11:20pm 13 16 mph 1014.2mb 41f
11:10pm 14 15 mph 1013.9mb 41f
11:00pm 11 14 mph 1013.9mb 40f
10:40pm 13 18 mph 1013.9mb 41f
10:30pm 14 17 mph 1013.9mb 42f
10:20pm 15 21 mph 1013.5mb 42f
10:10pm 15 18 mph 1013.2mb 42f
10:00pm 13 16 mph 1013.2mb 42f
9:40pm 13 15 mph 1012.9mb 40f
9:30pm 13 16 mph 1012.5mb 41f
9:20pm 14 22 mph 1012.5mb 41f
9:10pm 18 22 mph 1012.2mb 42f
9:00pm 18 22 mph 1011.9mb 42f
8:40pm 20 23 mph 1011.5mb 45f
8:30pm 20 28 mph 1010.8mb 47f
8:20pm 23 31 mph 1009.8mb 48f
8:10pm 23 36 mph 1009.5mb 47f
8:00pm 24 30 mph 1009.1mb 47f
7:40pm 21 32 mph 1008.8mb 47f
7:30pm 24 33 mph 1008.8mb 47f
7:20pm 20 25 mph 1008.8mb 46f
7:10pm 18 26 mph 1008.8mb 46f
7:00pm 22 30 mph 1008.8mb 46f
6:58pm 18 29 mph 1008.5mb 46f
6:40pm 21 29 mph 1008.8mb 45f
6:30pm 23 29 mph 1008.8mb 45f
6:20pm 24 32 mph 1009.1mb 45f
6:10pm 24 32 mph 1009.1mb 45f
6:04pm 23
mph
1009.1mb 45f
6:00pm 24 33 mph 1009.5mb 45f
5:40pm 22 30 mph 1009.8mb 44f
5:30pm 25 30 mph 1009.8mb 44f
5:20pm 18 28 mph 1010.5mb 43f
5:10pm 23 31 mph 1010.5mb 42f
5:03pm 23
mph
1010.5mb 42f
5:00pm 22 34 mph 1010.5mb 42f
4:40pm 30 37 mph 1010.2mb 41f
4:30pm 22 29 mph 1010.2mb 40f
4:20pm 24 30 mph 1010.5mb 40f
4:10pm 25 32 mph 1010.5mb 39f
4:03pm 20
mph
1010.8mb 38f
4:00pm 22 29 mph 1010.8mb 38f
3:40pm 21 30 mph 1011.2mb 38f
3:30pm 24 32 mph 1011.2mb 38f
3:20pm 23 32 mph 1011.2mb 38f
3:10pm 21 29 mph 1011.9mb 37f
3:00pm 20 31 mph 1011.5mb 37f
2:40pm 25 36 mph 1011.9mb 37f
2:37pm 25 32 mph 1011.5mb 37f
2:30pm 28 38 mph 1011.5mb 36f
2:20pm 23 36 mph 1012.2mb 36f
2:10pm 22 38 mph 1012.5mb 36f
2:00pm 25 41 mph 1013.2mb 36f
1:40pm 30 44 mph 1013.9mb 37f
1:30pm 26 31 mph 1014.2mb 38f
1:20pm 22 34 mph 1013.5mb 38f
1:10pm 25 33 mph 1013.5mb 38f
1:04pm 21 30 mph 1013.5mb 37f
1:00pm 23 31 mph 1013.5mb 37f
12:40pm 21 36 mph 1013.9mb 37f
12:30pm 26 36 mph 1013.9mb 37f
12:20pm 23 33 mph 1014.6mb 38f
12:10pm 21 31 mph 1015.2mb 38f
12:01pm 22
mph
1015.6mb 38f
12:00pm 22 31 mph 1015.2mb 38f
11:40am 28 36 mph 1016.3mb 39f
11:30am 28 33 mph 1016.3mb 38f
11:20am 21 30 mph 1016.9mb 39f
11:10am 22 34 mph 1017.3mb 39f
11:00am 25
mph
1017.3mb 38f
10:40am 26 36 mph 1018.3mb 38f
10:30am 21 32 mph 1019mb 38f
10:20am 28 36 mph 1019mb 37f
10:10am 25 37 mph 1019.6mb 37f
10:00am 26
mph
1019.6mb 36f
9:40am 23 29 mph 1020mb 35f
9:30am 18 30 mph 1020mb 35f
9:20am 17 32 mph 1020mb 35f
9:10am 24 36 mph 1020mb 35f
9:00am 21
mph
1020.7mb 34f
8:40am 16 22 mph 1021.7mb 32f
8:30am 18 26 mph 1021.7mb 31f
8:20am 17 25 mph 1021.3mb 31f
8:10am 16 24 mph 1022mb 31f
8:00am 16 23 mph 1022.4mb 31f
7:40am 13 25 mph 1022.7mb 30f
7:30am 16 25 mph 1022.4mb 29f
7:20am 17 22 mph 1022mb 29f
7:10am 17 22 mph 1021.7mb 29f
7:00am 20 24 mph 1021.7mb 29f
6:40am 16 22 mph 1022mb 29f
6:30am 18 25 mph 1022mb 29f
6:20am 15 22 mph 1022.4mb 29f
6:10am 13 22 mph 1022mb 29f
6:00am 13 18 mph 1022.4mb 29f
5:40am 14 23 mph 1022.7mb 29f
5:30am 15 20 mph 1022.7mb 29f
5:20am 15 21 mph 1022.7mb 29f
5:10am 15 21 mph 1022.7mb 29f
5:00am 13 23 mph 1022.7mb 29f
4:40am 14 22 mph 1023mb 28f
4:30am 15 25 mph 1023mb 28f
4:20am 16 23 mph 1023.4mb 28f
4:10am 17 23 mph 1023.4mb 28f
4:00am 14 22 mph 1023.4mb 28f
3:40am 14 25 mph 1023.7mb 28f
3:30am 11 18 mph 1024mb 28f
3:20am 13 18 mph 1024.4mb 27f
3:10am 13 18 mph 1024.4mb 27f
3:00am 13 16 mph 1024.4mb 27f
2:40am 11 17 mph 1024.7mb 28f
2:30am 9 13 mph 1025.1mb 27f
2:20am 9 14 mph 1025.1mb 27f
2:10am 10 15 mph 1025.4mb 28f
2:00am 10 17 mph 1025.4mb 27f
1:40am 8 13 mph 1025.7mb 27f
1:30am 6 13 mph 1025.7mb 27f
1:20am 8 13 mph 1025.7mb 27f
1:10am 8 16 mph 1025.7mb 27f
1:00am 10 14 mph 1025.7mb 27f
12:40am 10 14 mph 1025.7mb 27f
12:30am 9 15 mph 1026.1mb 26f
12:20am 9 15 mph 1026.1mb 27f
12:10am 8 13 mph 1026.1mb 26f
12:00am 9 13 mph 1026.1mb 26f
Sat 03/28 11:40pm 9 11 mph 1026.1mb 26f
11:30pm 6 9 mph 1026.4mb 26f
11:20pm 5 8 mph 1026.4mb 26f
11:10pm 5 7 mph 1026.4mb 26f
11:00pm 6 9 mph 1026.8mb 26f
10:40pm 2 5 mph 1027.1mb 27f
10:30pm 3 5 mph 1026.8mb 27f
10:20pm 1 7 mph 1027.1mb 27f
10:10pm 1 3 mph 1027.1mb 26f
10:00pm 1 7 mph 1027.1mb 27f
9:40pm 6 7 mph 1027.1mb 26f
9:30pm 7 8 mph 1027.1mb 25f
9:20pm 7 8 mph 1026.8mb 26f
9:10pm 7 8 mph 1027.1mb 26f
9:00pm 6 8 mph 1026.8mb 26f
8:40pm 7 8 mph 1026.8mb 26f
8:30pm 7 8 mph 1026.8mb 26f
8:20pm 7 8 mph 1026.8mb 26f
8:10pm 7 8 mph 1026.8mb 26f
8:00pm 7 8 mph 1026.8mb 26f
7:40pm 6 7 mph 1026.8mb 27f
7:30pm 6 8 mph 1026.8mb 27f
7:20pm 6 7 mph 1027.1mb 27f
7:10pm 6 8 mph 1027.1mb 27f
7:00pm 6 9 mph 1027.1mb 28f
6:40pm 6 8 mph 1027.1mb 28f
6:30pm 6 7 mph 1027.1mb 28f
6:20pm 6 8 mph 1027.1mb 28f
6:10pm 7 8 mph 1027.1mb 28f
6:00pm 7 8 mph 1027.1mb 27f
5:40pm 7 8 mph 1027.1mb 27f
5:30pm 5 8 mph 1027.1mb 27f
5:20pm 6 8 mph 1027.1mb 27f
5:10pm 5 8 mph 1027.1mb 27f
5:00pm 6 9 mph 1027.1mb 27f
4:40pm 7 9 mph 1027.4mb 27f
4:30pm 6 9 mph 1027.4mb 27f
4:20pm 6 7 mph 1027.4mb 27f
4:10pm 6 8 mph 1027.4mb 27f
4:00pm 7 9 mph 1027.4mb 26f
3:40pm 7 9 mph 1027.1mb 26f
3:30pm 6 9 mph 1027.4mb 26f
3:20pm 8 9 mph 1027.4mb 26f
3:10pm 6 9 mph 1027.4mb 26f
3:00pm 7 10 mph 1027.4mb 26f
2:40pm 7 10 mph 1027.4mb 26f
2:30pm 8 11 mph 1027.8mb 26f
2:20pm 8 11 mph 1028.1mb 26f
2:10pm 8 13 mph 1028.1mb 26f
2:00pm 9 11 mph 1028.1mb 25f
1:40pm 7 11 mph 1028.1mb 25f
1:30pm 6 10 mph 1028.1mb 25f
1:20pm 8 11 mph 1028.1mb 25f
1:10pm 8 11 mph 1028.1mb 24f
1:00pm 9 13 mph 1028.1mb 24f
12:40pm 8 13 mph 1028.4mb 24f
12:30pm 8 13 mph 1028.1mb 24f
12:20pm 10 13 mph 1028.4mb 24f
12:10pm 9 11 mph 1028.4mb 24f
12:00pm 8 10 mph 1028.8mb 24f
11:40am 9 10 mph 1028.4mb 24f
11:30am 8 11 mph 1028.8mb 24f
11:20am 7 9 mph 1028.8mb 24f